Latest Weather Observations for Busselton Jetty

IDW60801

Issued at 3:04 am WST Wednesday 18 January 2017 (issued every 30 minutes, with the page automatically refreshed every 10 minutes)

About weather observations | Map of weather stations | Latest weather observations for WA | Other Formats
Station Details ID: 009937 Name: BUSSELTON JETTY Lat: -33.63 Lon: 115.34 Height: 3.0 m
Data from the previous 72 hours. | See also: Recent months at Busselton Jetty
Date/Time
WST
Temp
°C
App
Temp
°C
Dew
Point
°C
Rel
Hum
%
Delta-T
°C
Wind Press
QNH
hPa
Press
MSL
hPa
Rain since
9am
mm
Dir  Spd
km/h
Gust
km/h
Spd
kts
Gust
kts
18/03:00am - - - - - E 32 37 17 20 - - -
18/02:30am - - - - - E 32 43 17 23 - - -
18/02:00am - - - - - E 33 39 18 21 - - -
18/01:30am - - - - - E 32 41 17 22 - - -
18/01:00am - - - - - E 26 33 14 18 - - -
18/12:30am - - - - - ESE 24 32 13 17 - - -
18/12:00am - - - - - SE 20 26 11 14 - - -
 
Date/Time
WST
Temp
°C
App
Temp
°C
Dew
Point
°C
Rel
Hum
%
Delta-T
°C
Wind Press
QNH
hPa
Press
MSL
hPa
Rain since
9am
mm
Dir  Spd
km/h
Gust
km/h
Spd
kts
Gust
kts
17/11:30pm - - - - - SE 22 28 12 15 - - -
17/11:00pm - - - - - SE 26 30 14 16 - - -
17/10:30pm - - - - - SSE 28 33 15 18 - - -
17/10:00pm - - - - - SSE 30 35 16 19 - - -
17/09:30pm - - - - - SSE 30 39 16 21 - - -
17/09:00pm - - - - - SSE 32 41 17 22 - - -
17/08:30pm - - - - - S 33 43 18 23 - - -
17/08:00pm - - - - - S 35 46 19 25 - - -
17/07:30pm - - - - - S 33 43 18 23 - - -
17/07:00pm - - - - - S 39 50 21 27 - - -
17/06:30pm - - - - - S 39 50 21 27 - - -
17/06:00pm - - - - - S 41 50 22 27 - - -
17/05:30pm - - - - - S 41 50 22 27 - - -
17/05:00pm - - - - - SSE 32 44 17 24 - - -
17/04:57pm - - - - - SSE 28 37 15 20 - - -
17/04:30pm - - - - - WSW 11 20 6 11 - - -
17/04:00pm - - - - - WNW 19 24 10 13 - - -
17/03:30pm - - - - - WNW 20 24 11 13 - - -
17/03:00pm - - - - - W 24 28 13 15 - - -
17/02:30pm - - - - - WNW 24 28 13 15 - - -
17/02:00pm - - - - - S 11 17 6 9 - - -
17/01:30pm - - - - - ESE 11 19 6 10 - - -
17/01:00pm - - - - - SE 13 20 7 11 - - -
17/12:30pm - - - - - ESE 15 22 8 12 - - -
17/12:00pm - - - - - SE 13 26 7 14 - - -
17/11:30am - - - - - E 22 32 12 17 - - -
17/11:00am - - - - - ESE 17 26 9 14 - - -
17/10:30am - - - - - ESE 24 35 13 19 - - -
17/10:00am - - - - - SE 20 35 11 19 - - -
17/09:30am - - - - - SE 30 37 16 20 - - -
17/09:00am - - - - - SE 30 39 16 21 - - -
17/08:30am - - - - - ESE 33 44 18 24 - - -
17/08:00am - - - - - ESE 24 32 13 17 - - -
17/07:30am - - - - - SE 19 24 10 13 - - -
17/07:00am - - - - - SE 17 20 9 11 - - -
17/06:30am - - - - - SSE 13 17 7 9 - - -
17/06:00am - - - - - ESE 19 26 10 14 - - -
17/05:30am - - - - - SE 15 19 8 10 - - -
17/05:00am - - - - - SE 17 20 9 11 - - -
17/04:30am - - - - - SE 15 19 8 10 - - -
17/04:00am - - - - - SE 15 19 8 10 - - -
17/03:30am - - - - - SSE 13 17 7 9 - - -
17/03:00am - - - - - SSE 15 19 8 10 - - -
17/02:30am - - - - - SE 15 19 8 10 - - -
17/02:00am - - - - - SSE 17 20 9 11 - - -
17/01:30am - - - - - SSE 17 20 9 11 - - -
17/01:00am - - - - - SSE 17 22 9 12 - - -
17/12:30am - - - - - SSE 20 26 11 14 - - -
17/12:00am - - - - - SSE 20 26 11 14 - - -
 
Date/Time
WST
Temp
°C
App
Temp
°C
Dew
Point
°C
Rel
Hum
%
Delta-T
°C
Wind Press
QNH
hPa
Press
MSL
hPa
Rain since
9am
mm
Dir  Spd
km/h
Gust
km/h
Spd
kts
Gust
kts
16/11:30pm - - - - - SSE 22 28 12 15 - - -
16/11:00pm - - - - - SSE 22 28 12 15 - - -
16/10:30pm - - - - - SSE 24 33 13 18 - - -
16/10:00pm - - - - - SSE 30 37 16 20 - - -
16/09:30pm - - - - - SSE 28 37 15 20 - - -
16/09:00pm - - - - - S 32 44 17 24 - - -
16/08:30pm - - - - - S 33 41 18 22 - - -
16/08:00pm - - - - - S 33 41 18 22 - - -
16/07:30pm - - - - - S 35 44 19 24 - - -
16/07:00pm - - - - - S 39 48 21 26 - - -
16/06:30pm - - - - - S 39 50 21 27 - - -
16/06:00pm - - - - - SSE 33 46 18 25 - - -
16/05:30pm - - - - - S 35 48 19 26 - - -
16/05:00pm - - - - - S 32 39 17 21 - - -
16/04:30pm - - - - - S 33 43 18 23 - - -
16/04:00pm - - - - - S 32 41 17 22 - - -
16/03:30pm - - - - - S 33 46 18 25 - - -
16/03:00pm - - - - - SSE 30 41 16 22 - - -
16/02:30pm - - - - - S 32 41 17 22 - - -
16/02:00pm - - - - - SSW 32 41 17 22 - - -
16/01:30pm - - - - - SSW 32 44 17 24 - - -
16/01:00pm - - - - - SSW 30 35 16 19 - - -
16/12:40pm - - - - - S 26 48 14 26 - - -
16/12:30pm - - - - - SSW 28 35 15 19 - - -
16/12:00pm - - - - - SSW 28 35 15 19 - - -
16/11:30am - - - - - S 33 41 18 22 - - -
16/11:00am - - - - - S 22 33 12 18 - - -
16/10:30am - - - - - SSW 24 35 13 19 - - -
16/10:00am - - - - - SSE 22 30 12 16 - - -
16/09:30am - - - - - SSE 22 32 12 17 - - -
16/09:00am - - - - - S 32 37 17 20 - - -
16/08:30am - - - - - S 22 32 12 17 - - -
16/08:00am - - - - - SE 15 20 8 11 - - -
16/07:30am - - - - - ESE 11 15 6 8 - - -
16/07:00am - - - - - S 15 17 8 9 - - -
16/06:30am - - - - - SSW 19 20 10 11 - - -
16/06:00am - - - - - SSW 17 19 9 10 - - -
16/05:30am - - - - - SSW 17 19 9 10 - - -
16/05:00am - - - - - S 15 17 8 9 - - -
16/04:30am - - - - - S 15 19 8 10 - - -
16/04:00am - - - - - S 17 19 9 10 - - -
16/03:30am - - - - - SSW 19 22 10 12 - - -
16/03:00am - - - - - SSW 19 20 10 11 - - -
16/02:30am - - - - - SSW 13 17 7 9 - - -
16/02:00am - - - - - SSW 13 15 7 8 - - -
16/01:30am - - - - - S 13 15 7 8 - - -
16/01:00am - - - - - S 13 15 7 8 - - -
16/12:30am - - - - - S 13 17 7 9 - - -
16/12:00am - - - - - SSW 15 17 8 9 - - -
 
Date/Time
WST
Temp
°C
App
Temp
°C
Dew
Point
°C
Rel
Hum
%
Delta-T
°C
Wind Press
QNH
hPa
Press
MSL
hPa
Rain since
9am
mm
Dir  Spd
km/h
Gust
km/h
Spd
kts
Gust
kts
15/11:30pm - - - - - SSW 13 15 7 8 - - -
15/11:00pm - - - - - S 11 13 6 7 - - -
15/10:30pm - - - - - SSE 15 20 8 11 - - -
15/10:00pm - - - - - S 17 24 9 13 - - -
15/09:30pm - - - - - S 19 22 10 12 - - -
15/09:00pm - - - - - S 19 26 10 14 - - -
15/08:30pm - - - - - SSE 19 26 10 14 - - -
15/08:00pm - - - - - S 26 33 14 18 - - -
15/07:30pm - - - - - S 32 41 17 22 - - -
15/07:00pm - - - - - S 35 44 19 24 - - -
15/06:30pm - - - - - S 41 48 22 26 - - -
15/06:00pm - - - - - S 41 52 22 28 - - -
15/05:30pm - - - - - SSW 39 48 21 26 - - -
15/05:00pm - - - - - S 41 54 22 29 - - -
15/04:30pm - - - - - SSW 35 46 19 25 - - -
15/04:00pm - - - - - SSW 32 41 17 22 - - -
15/03:30pm - - - - - SW 26 32 14 17 - - -
15/03:00pm - - - - - SW 26 33 14 18 - - -
15/02:30pm - - - - - SW 26 35 14 19 - - -
15/02:00pm - - - - - WSW 19 26 10 14 - - -
15/01:30pm - - - - - WNW 19 20 10 11 - - -
15/01:00pm - - - - - WNW 20 26 11 14 - - -
15/12:30pm - - - - - WNW 19 20 10 11 - - -
15/12:00pm - - - - - WNW 11 13 6 7 - - -
15/11:30am - - - - - SW 11 15 6 8 - - -
15/11:00am - - - - - SW 15 22 8 12 - - -
15/10:30am - - - - - SSW 19 26 10 14 - - -
15/10:00am - - - - - S 19 22 10 12 - - -
15/09:30am - - - - - S 19 26 10 14 - - -
15/09:00am - - - - - S 22 30 12 16 - - -
15/08:30am - - - - - SSE 20 26 11 14 - - -
15/08:00am - - - - - SSE 22 28 12 15 - - -
15/07:30am - - - - - SSE 24 32 13 17 - - -
15/07:00am - - - - - S 22 30 12 16 - - -
15/06:30am - - - - - S 20 28 11 15 - - -
15/06:00am - - - - - S 20 26 11 14 - - -
15/05:30am - - - - - S 17 20 9 11 - - -
15/05:00am - - - - - S 19 24 10 13 - - -
15/04:30am - - - - - SSW 17 22 9 12 - - -
15/04:00am - - - - - S 17 20 9 11 - - -
15/03:30am - - - - - SSW 22 28 12 15 - - -

Other Formats:

Comma delimited format used in spreadsheet applications
http://www.bom.gov.au/fwo/IDW60801/IDW60801.95602.axf

JavaScript Object Notation format (JSON) in row-major order
http://www.bom.gov.au/fwo/IDW60801/IDW60801.95602.json